sensor_id;sensor_type;location;lat;lon;timestamp;P1;durP1;ratioP1;P2;durP2;ratioP2
48859;SDS011;34679;51.436;-2.518;2023-01-31T00:01:06;19.52;;;3.70;;
48859;SDS011;34679;51.436;-2.518;2023-01-31T00:03:33;20.60;;;2.97;;
48859;SDS011;34679;51.436;-2.518;2023-01-31T00:08:55;18.83;;;2.85;;
48859;SDS011;34679;51.436;-2.518;2023-01-31T00:11:23;25.58;;;3.53;;
48859;SDS011;34679;51.436;-2.518;2023-01-31T00:13:50;19.63;;;3.92;;
48859;SDS011;34679;51.436;-2.518;2023-01-31T00:16:16;20.02;;;3.63;;
48859;SDS011;34679;51.436;-2.518;2023-01-31T00:18:43;15.05;;;2.67;;
48859;SDS011;34679;51.436;-2.518;2023-01-31T00:21:14;24.80;;;3.40;;
48859;SDS011;34679;51.436;-2.518;2023-01-31T00:23:42;29.02;;;3.60;;
48859;SDS011;34679;51.436;-2.518;2023-01-31T00:26:16;22.83;;;2.75;;
48859;SDS011;34679;51.436;-2.518;2023-01-31T00:28:45;24.60;;;2.83;;
48859;SDS011;34679;51.436;-2.518;2023-01-31T00:31:12;18.27;;;3.08;;
48859;SDS011;34679;51.436;-2.518;2023-01-31T00:33:40;23.38;;;3.38;;
48859;SDS011;34679;51.436;-2.518;2023-01-31T00:36:07;21.77;;;3.42;;
48859;SDS011;34679;51.436;-2.518;2023-01-31T00:38:35;22.25;;;2.20;;
48859;SDS011;34679;51.436;-2.518;2023-01-31T00:41:02;20.15;;;2.85;;
48859;SDS011;34679;51.436;-2.518;2023-01-31T00:43:28;19.05;;;3.33;;
48859;SDS011;34679;51.436;-2.518;2023-01-31T00:45:57;25.83;;;3.45;;
48859;SDS011;34679;51.436;-2.518;2023-01-31T00:48:23;16.58;;;2.28;;
48859;SDS011;34679;51.436;-2.518;2023-01-31T00:50:49;14.25;;;2.28;;
48859;SDS011;34679;51.436;-2.518;2023-01-31T00:53:15;19.88;;;2.67;;
48859;SDS011;34679;51.436;-2.518;2023-01-31T00:55:47;25.83;;;2.92;;
48859;SDS011;34679;51.436;-2.518;2023-01-31T00:58:13;21.25;;;2.55;;
48859;SDS011;34679;51.436;-2.518;2023-01-31T01:00:38;10.77;;;1.90;;
48859;SDS011;34679;51.436;-2.518;2023-01-31T01:03:04;19.95;;;3.75;;
48859;SDS011;34679;51.436;-2.518;2023-01-31T01:05:30;11.48;;;1.90;;
48859;SDS011;34679;51.436;-2.518;2023-01-31T01:07:55;19.17;;;4.43;;
48859;SDS011;34679;51.436;-2.518;2023-01-31T01:10:21;15.07;;;2.22;;
48859;SDS011;34679;51.436;-2.518;2023-01-31T01:12:47;16.25;;;3.17;;
48859;SDS011;34679;51.436;-2.518;2023-01-31T01:15:13;17.02;;;2.25;;
48859;SDS011;34679;51.436;-2.518;2023-01-31T01:17:38;18.02;;;3.00;;
48859;SDS011;34679;51.436;-2.518;2023-01-31T01:20:04;12.88;;;2.72;;
48859;SDS011;34679;51.436;-2.518;2023-01-31T01:22:32;19.80;;;2.83;;
48859;SDS011;34679;51.436;-2.518;2023-01-31T01:24:58;19.08;;;3.53;;
48859;SDS011;34679;51.436;-2.518;2023-01-31T01:27:24;18.92;;;2.25;;
48859;SDS011;34679;51.436;-2.518;2023-01-31T01:29:51;21.67;;;2.17;;
48859;SDS011;34679;51.436;-2.518;2023-01-31T01:32:17;12.82;;;2.28;;
48859;SDS011;34679;51.436;-2.518;2023-01-31T01:34:43;17.23;;;2.95;;
48859;SDS011;34679;51.436;-2.518;2023-01-31T01:37:08;18.33;;;2.08;;
48859;SDS011;34679;51.436;-2.518;2023-01-31T01:39:39;21.65;;;2.75;;
48859;SDS011;34679;51.436;-2.518;2023-01-31T01:42:05;16.35;;;2.90;;
48859;SDS011;34679;51.436;-2.518;2023-01-31T01:44:48;16.60;;;2.80;;
48859;SDS011;34679;51.436;-2.518;2023-01-31T01:49:53;17.98;;;2.47;;
48859;SDS011;34679;51.436;-2.518;2023-01-31T01:52:27;39.30;;;4.85;;
48859;SDS011;34679;51.436;-2.518;2023-01-31T01:54:58;17.38;;;2.38;;
48859;SDS011;34679;51.436;-2.518;2023-01-31T01:57:46;17.33;;;2.10;;
48859;SDS011;34679;51.436;-2.518;2023-01-31T02:00:19;24.60;;;3.55;;
48859;SDS011;34679;51.436;-2.518;2023-01-31T02:02:48;20.38;;;2.17;;
48859;SDS011;34679;51.436;-2.518;2023-01-31T02:05:19;15.80;;;2.15;;
48859;SDS011;34679;51.436;-2.518;2023-01-31T02:07:48;21.90;;;2.65;;
48859;SDS011;34679;51.436;-2.518;2023-01-31T02:10:22;19.52;;;2.78;;
48859;SDS011;34679;51.436;-2.518;2023-01-31T02:12:52;21.00;;;3.05;;
48859;SDS011;34679;51.436;-2.518;2023-01-31T02:15:18;21.83;;;2.65;;
48859;SDS011;34679;51.436;-2.518;2023-01-31T02:17:44;24.88;;;2.55;;
48859;SDS011;34679;51.436;-2.518;2023-01-31T02:22:42;14.00;;;2.45;;
48859;SDS011;34679;51.436;-2.518;2023-01-31T02:31:05;19.80;;;2.30;;
48859;SDS011;34679;51.436;-2.518;2023-01-31T02:39:10;24.70;;;2.72;;
48859;SDS011;34679;51.436;-2.518;2023-01-31T02:44:55;23.73;;;2.50;;
48859;SDS011;34679;51.436;-2.518;2023-01-31T02:50:13;14.70;;;2.28;;
48859;SDS011;34679;51.436;-2.518;2023-01-31T03:01:47;17.10;;;3.08;;
48859;SDS011;34679;51.436;-2.518;2023-01-31T03:04:19;18.17;;;2.35;;
48859;SDS011;34679;51.436;-2.518;2023-01-31T03:06:46;20.58;;;2.80;;
48859;SDS011;34679;51.436;-2.518;2023-01-31T03:09:36;19.15;;;2.70;;
48859;SDS011;34679;51.436;-2.518;2023-01-31T03:12:10;17.33;;;3.28;;
48859;SDS011;34679;51.436;-2.518;2023-01-31T03:20:49;20.05;;;2.63;;
48859;SDS011;34679;51.436;-2.518;2023-01-31T03:23:18;34.15;;;3.17;;
48859;SDS011;34679;51.436;-2.518;2023-01-31T03:25:47;24.45;;;3.05;;
48859;SDS011;34679;51.436;-2.518;2023-01-31T03:28:15;19.25;;;2.50;;
48859;SDS011;34679;51.436;-2.518;2023-01-31T03:33:44;24.98;;;2.58;;
48859;SDS011;34679;51.436;-2.518;2023-01-31T03:47:26;22.15;;;1.95;;
48859;SDS011;34679;51.436;-2.518;2023-01-31T03:49:56;30.75;;;3.88;;
48859;SDS011;34679;51.436;-2.518;2023-01-31T03:52:26;25.95;;;2.80;;
48859;SDS011;34679;51.436;-2.518;2023-01-31T03:55:01;23.20;;;2.00;;
48859;SDS011;34679;51.436;-2.518;2023-01-31T03:57:32;20.90;;;4.50;;
48859;SDS011;34679;51.436;-2.518;2023-01-31T04:00:02;28.92;;;2.65;;
48859;SDS011;34679;51.436;-2.518;2023-01-31T04:02:32;15.98;;;2.10;;
48859;SDS011;34679;51.436;-2.518;2023-01-31T04:07:39;20.35;;;3.22;;
48859;SDS011;34679;51.436;-2.518;2023-01-31T04:10:06;16.13;;;3.05;;
48859;SDS011;34679;51.436;-2.518;2023-01-31T04:12:36;25.70;;;2.88;;
48859;SDS011;34679;51.436;-2.518;2023-01-31T04:15:03;11.80;;;1.95;;
48859;SDS011;34679;51.436;-2.518;2023-01-31T04:17:29;15.73;;;2.45;;
48859;SDS011;34679;51.436;-2.518;2023-01-31T04:19:55;19.52;;;3.65;;
48859;SDS011;34679;51.436;-2.518;2023-01-31T04:22:20;16.88;;;2.22;;
48859;SDS011;34679;51.436;-2.518;2023-01-31T04:24:46;24.38;;;4.03;;
48859;SDS011;34679;51.436;-2.518;2023-01-31T04:27:12;26.92;;;3.50;;
48859;SDS011;34679;51.436;-2.518;2023-01-31T04:29:38;13.70;;;2.22;;
48859;SDS011;34679;51.436;-2.518;2023-01-31T04:32:03;15.90;;;2.08;;
48859;SDS011;34679;51.436;-2.518;2023-01-31T04:34:29;13.70;;;2.17;;
48859;SDS011;34679;51.436;-2.518;2023-01-31T04:36:55;15.80;;;2.42;;
48859;SDS011;34679;51.436;-2.518;2023-01-31T04:39:21;14.82;;;2.35;;
48859;SDS011;34679;51.436;-2.518;2023-01-31T04:41:46;11.52;;;2.15;;
48859;SDS011;34679;51.436;-2.518;2023-01-31T04:44:12;10.40;;;1.75;;
48859;SDS011;34679;51.436;-2.518;2023-01-31T04:46:38;15.52;;;2.30;;
48859;SDS011;34679;51.436;-2.518;2023-01-31T04:49:04;17.60;;;3.58;;
48859;SDS011;34679;51.436;-2.518;2023-01-31T04:51:29;20.08;;;3.10;;
48859;SDS011;34679;51.436;-2.518;2023-01-31T04:53:55;20.52;;;2.58;;
48859;SDS011;34679;51.436;-2.518;2023-01-31T04:56:21;16.40;;;2.85;;
48859;SDS011;34679;51.436;-2.518;2023-01-31T04:58:47;14.27;;;2.17;;
48859;SDS011;34679;51.436;-2.518;2023-01-31T05:01:12;19.40;;;2.58;;
48859;SDS011;34679;51.436;-2.518;2023-01-31T05:03:38;11.23;;;1.52;;
48859;SDS011;34679;51.436;-2.518;2023-01-31T05:06:04;19.33;;;4.05;;
48859;SDS011;34679;51.436;-2.518;2023-01-31T05:08:30;15.82;;;2.83;;
48859;SDS011;34679;51.436;-2.518;2023-01-31T05:10:59;14.43;;;5.25;;
48859;SDS011;34679;51.436;-2.518;2023-01-31T05:13:26;18.05;;;2.83;;
48859;SDS011;34679;51.436;-2.518;2023-01-31T05:15:54;12.55;;;2.25;;
48859;SDS011;34679;51.436;-2.518;2023-01-31T05:18:22;15.70;;;4.40;;
48859;SDS011;34679;51.436;-2.518;2023-01-31T05:20:48;16.45;;;2.53;;
48859;SDS011;34679;51.436;-2.518;2023-01-31T05:23:14;15.27;;;2.80;;
48859;SDS011;34679;51.436;-2.518;2023-01-31T05:25:43;16.83;;;3.65;;
48859;SDS011;34679;51.436;-2.518;2023-01-31T05:28:12;24.38;;;2.30;;
48859;SDS011;34679;51.436;-2.518;2023-01-31T05:30:38;24.45;;;2.53;;
48859;SDS011;34679;51.436;-2.518;2023-01-31T05:33:04;18.92;;;1.63;;
48859;SDS011;34679;51.436;-2.518;2023-01-31T05:35:29;20.85;;;3.45;;
48859;SDS011;34679;51.436;-2.518;2023-01-31T05:37:55;18.42;;;3.10;;
48859;SDS011;34679;51.436;-2.518;2023-01-31T05:40:22;18.85;;;2.60;;
48859;SDS011;34679;51.436;-2.518;2023-01-31T05:42:55;21.83;;;2.85;;
48859;SDS011;34679;51.436;-2.518;2023-01-31T05:47:47;20.42;;;2.15;;
48859;SDS011;34679;51.436;-2.518;2023-01-31T05:50:13;21.48;;;2.08;;
48859;SDS011;34679;51.436;-2.518;2023-01-31T05:52:39;23.27;;;2.28;;
48859;SDS011;34679;51.436;-2.518;2023-01-31T05:55:04;23.80;;;2.83;;
48859;SDS011;34679;51.436;-2.518;2023-01-31T05:57:30;23.13;;;2.70;;
48859;SDS011;34679;51.436;-2.518;2023-01-31T05:59:57;25.30;;;2.92;;
48859;SDS011;34679;51.436;-2.518;2023-01-31T06:02:24;19.80;;;2.20;;
48859;SDS011;34679;51.436;-2.518;2023-01-31T06:04:49;29.30;;;3.20;;
48859;SDS011;34679;51.436;-2.518;2023-01-31T06:07:15;28.88;;;2.85;;
48859;SDS011;34679;51.436;-2.518;2023-01-31T06:09:41;32.97;;;3.35;;
48859;SDS011;34679;51.436;-2.518;2023-01-31T06:12:11;31.70;;;3.70;;
48859;SDS011;34679;51.436;-2.518;2023-01-31T06:14:38;44.95;;;5.10;;
48859;SDS011;34679;51.436;-2.518;2023-01-31T06:17:04;35.70;;;3.08;;
48859;SDS011;34679;51.436;-2.518;2023-01-31T06:19:30;33.03;;;4.15;;
48859;SDS011;34679;51.436;-2.518;2023-01-31T06:21:55;23.15;;;2.97;;
48859;SDS011;34679;51.436;-2.518;2023-01-31T06:24:21;40.90;;;4.28;;
48859;SDS011;34679;51.436;-2.518;2023-01-31T06:26:47;37.38;;;4.82;;
48859;SDS011;34679;51.436;-2.518;2023-01-31T06:29:12;40.40;;;4.97;;
48859;SDS011;34679;51.436;-2.518;2023-01-31T06:31:38;28.48;;;3.42;;
48859;SDS011;34679;51.436;-2.518;2023-01-31T06:34:07;36.22;;;4.75;;
48859;SDS011;34679;51.436;-2.518;2023-01-31T06:36:32;27.15;;;3.83;;
48859;SDS011;34679;51.436;-2.518;2023-01-31T06:38:58;31.55;;;4.18;;
48859;SDS011;34679;51.436;-2.518;2023-01-31T06:41:24;40.25;;;4.03;;
48859;SDS011;34679;51.436;-2.518;2023-01-31T06:43:49;27.35;;;4.28;;
48859;SDS011;34679;51.436;-2.518;2023-01-31T06:46:15;31.50;;;3.58;;
48859;SDS011;34679;51.436;-2.518;2023-01-31T06:48:41;42.38;;;3.55;;
48859;SDS011;34679;51.436;-2.518;2023-01-31T06:51:08;33.83;;;3.67;;
48859;SDS011;34679;51.436;-2.518;2023-01-31T06:53:34;39.92;;;4.07;;
48859;SDS011;34679;51.436;-2.518;2023-01-31T06:56:00;33.03;;;4.20;;
48859;SDS011;34679;51.436;-2.518;2023-01-31T06:58:26;48.30;;;4.70;;
48859;SDS011;34679;51.436;-2.518;2023-01-31T07:00:52;35.75;;;4.53;;
48859;SDS011;34679;51.436;-2.518;2023-01-31T07:03:18;40.80;;;5.32;;
48859;SDS011;34679;51.436;-2.518;2023-01-31T07:05:44;33.42;;;3.97;;
48859;SDS011;34679;51.436;-2.518;2023-01-31T07:08:10;33.58;;;5.30;;
48859;SDS011;34679;51.436;-2.518;2023-01-31T07:10:36;32.10;;;3.85;;
48859;SDS011;34679;51.436;-2.518;2023-01-31T07:13:02;27.55;;;3.90;;
48859;SDS011;34679;51.436;-2.518;2023-01-31T07:15:27;25.05;;;4.05;;
48859;SDS011;34679;51.436;-2.518;2023-01-31T07:17:59;32.60;;;4.88;;
48859;SDS011;34679;51.436;-2.518;2023-01-31T07:20:25;40.20;;;4.10;;
48859;SDS011;34679;51.436;-2.518;2023-01-31T07:22:55;39.33;;;4.32;;
48859;SDS011;34679;51.436;-2.518;2023-01-31T07:25:21;34.03;;;3.67;;
48859;SDS011;34679;51.436;-2.518;2023-01-31T07:27:47;31.55;;;4.22;;
48859;SDS011;34679;51.436;-2.518;2023-01-31T07:30:12;30.70;;;4.03;;
48859;SDS011;34679;51.436;-2.518;2023-01-31T07:32:38;42.17;;;4.35;;
48859;SDS011;34679;51.436;-2.518;2023-01-31T07:35:04;22.80;;;3.53;;
48859;SDS011;34679;51.436;-2.518;2023-01-31T07:37:30;24.35;;;4.15;;
48859;SDS011;34679;51.436;-2.518;2023-01-31T07:39:56;19.98;;;2.53;;
48859;SDS011;34679;51.436;-2.518;2023-01-31T07:42:21;19.92;;;4.38;;
48859;SDS011;34679;51.436;-2.518;2023-01-31T07:44:47;23.05;;;3.70;;
48859;SDS011;34679;51.436;-2.518;2023-01-31T07:47:12;18.98;;;2.47;;
48859;SDS011;34679;51.436;-2.518;2023-01-31T07:49:38;21.85;;;2.58;;
48859;SDS011;34679;51.436;-2.518;2023-01-31T07:52:04;18.73;;;2.88;;
48859;SDS011;34679;51.436;-2.518;2023-01-31T07:54:29;20.20;;;2.15;;
48859;SDS011;34679;51.436;-2.518;2023-01-31T07:56:55;24.48;;;2.55;;
48859;SDS011;34679;51.436;-2.518;2023-01-31T07:59:21;16.45;;;3.33;;
48859;SDS011;34679;51.436;-2.518;2023-01-31T08:01:46;19.65;;;3.72;;
48859;SDS011;34679;51.436;-2.518;2023-01-31T08:04:30;22.00;;;3.42;;
48859;SDS011;34679;51.436;-2.518;2023-01-31T08:06:58;22.63;;;3.60;;
48859;SDS011;34679;51.436;-2.518;2023-01-31T08:09:27;17.45;;;2.80;;
48859;SDS011;34679;51.436;-2.518;2023-01-31T08:11:53;23.45;;;3.47;;
48859;SDS011;34679;51.436;-2.518;2023-01-31T08:14:19;13.63;;;2.30;;
48859;SDS011;34679;51.436;-2.518;2023-01-31T08:16:49;14.45;;;2.40;;
48859;SDS011;34679;51.436;-2.518;2023-01-31T08:19:16;18.50;;;2.58;;
48859;SDS011;34679;51.436;-2.518;2023-01-31T08:21:42;12.82;;;2.30;;
48859;SDS011;34679;51.436;-2.518;2023-01-31T08:24:07;16.85;;;2.78;;
48859;SDS011;34679;51.436;-2.518;2023-01-31T08:26:33;17.33;;;3.15;;
48859;SDS011;34679;51.436;-2.518;2023-01-31T08:28:59;21.15;;;4.57;;
48859;SDS011;34679;51.436;-2.518;2023-01-31T08:31:26;18.85;;;4.63;;
48859;SDS011;34679;51.436;-2.518;2023-01-31T08:33:53;25.05;;;3.85;;
48859;SDS011;34679;51.436;-2.518;2023-01-31T08:38:48;23.98;;;3.70;;
48859;SDS011;34679;51.436;-2.518;2023-01-31T08:41:14;26.65;;;4.38;;
48859;SDS011;34679;51.436;-2.518;2023-01-31T08:43:42;24.52;;;4.10;;
48859;SDS011;34679;51.436;-2.518;2023-01-31T08:46:08;40.15;;;6.35;;
48859;SDS011;34679;51.436;-2.518;2023-01-31T08:48:34;28.45;;;5.00;;
48859;SDS011;34679;51.436;-2.518;2023-01-31T08:51:01;21.92;;;4.47;;
48859;SDS011;34679;51.436;-2.518;2023-01-31T08:53:30;18.98;;;5.18;;
48859;SDS011;34679;51.436;-2.518;2023-01-31T08:55:59;30.65;;;5.65;;
48859;SDS011;34679;51.436;-2.518;2023-01-31T08:58:33;25.65;;;4.97;;
48859;SDS011;34679;51.436;-2.518;2023-01-31T09:01:01;25.63;;;4.35;;
48859;SDS011;34679;51.436;-2.518;2023-01-31T09:03:32;25.00;;;5.40;;
48859;SDS011;34679;51.436;-2.518;2023-01-31T09:05:58;17.20;;;3.53;;
48859;SDS011;34679;51.436;-2.518;2023-01-31T09:08:24;19.13;;;3.30;;
48859;SDS011;34679;51.436;-2.518;2023-01-31T09:10:53;26.40;;;3.67;;
48859;SDS011;34679;51.436;-2.518;2023-01-31T09:13:20;22.40;;;4.03;;
48859;SDS011;34679;51.436;-2.518;2023-01-31T09:15:46;29.02;;;4.22;;
48859;SDS011;34679;51.436;-2.518;2023-01-31T09:18:21;18.35;;;3.08;;
48859;SDS011;34679;51.436;-2.518;2023-01-31T09:20:47;21.05;;;3.60;;
48859;SDS011;34679;51.436;-2.518;2023-01-31T09:23:12;14.50;;;3.17;;
48859;SDS011;34679;51.436;-2.518;2023-01-31T09:25:38;14.23;;;3.35;;
48859;SDS011;34679;51.436;-2.518;2023-01-31T09:28:04;15.13;;;3.63;;
48859;SDS011;34679;51.436;-2.518;2023-01-31T09:30:29;20.10;;;3.30;;
48859;SDS011;34679;51.436;-2.518;2023-01-31T09:32:55;23.17;;;4.03;;
48859;SDS011;34679;51.436;-2.518;2023-01-31T09:35:20;25.50;;;4.40;;
48859;SDS011;34679;51.436;-2.518;2023-01-31T09:37:46;22.30;;;4.07;;
48859;SDS011;34679;51.436;-2.518;2023-01-31T09:40:15;24.02;;;3.33;;
48859;SDS011;34679;51.436;-2.518;2023-01-31T09:42:47;16.05;;;3.95;;
48859;SDS011;34679;51.436;-2.518;2023-01-31T09:45:31;29.88;;;4.57;;
48859;SDS011;34679;51.436;-2.518;2023-01-31T09:48:00;25.05;;;6.57;;
48859;SDS011;34679;51.436;-2.518;2023-01-31T09:50:39;20.83;;;3.83;;
48859;SDS011;34679;51.436;-2.518;2023-01-31T09:53:11;17.80;;;3.72;;
48859;SDS011;34679;51.436;-2.518;2023-01-31T09:58:38;23.88;;;4.70;;
48859;SDS011;34679;51.436;-2.518;2023-01-31T10:06:35;24.65;;;3.60;;
48859;SDS011;34679;51.436;-2.518;2023-01-31T10:09:13;15.15;;;3.70;;
48859;SDS011;34679;51.436;-2.518;2023-01-31T10:11:48;14.57;;;3.42;;
48859;SDS011;34679;51.436;-2.518;2023-01-31T10:14:55;17.70;;;3.05;;
48859;SDS011;34679;51.436;-2.518;2023-01-31T10:17:26;16.58;;;2.67;;
48859;SDS011;34679;51.436;-2.518;2023-01-31T10:19:59;16.92;;;2.90;;
48859;SDS011;34679;51.436;-2.518;2023-01-31T10:22:44;15.13;;;3.63;;
48859;SDS011;34679;51.436;-2.518;2023-01-31T10:25:37;13.93;;;2.88;;
48859;SDS011;34679;51.436;-2.518;2023-01-31T10:33:37;19.10;;;3.38;;
48859;SDS011;34679;51.436;-2.518;2023-01-31T10:44:19;18.85;;;3.92;;
48859;SDS011;34679;51.436;-2.518;2023-01-31T10:46:50;18.52;;;4.28;;
48859;SDS011;34679;51.436;-2.518;2023-01-31T10:49:19;16.15;;;3.67;;
48859;SDS011;34679;51.436;-2.518;2023-01-31T10:57:51;15.43;;;3.85;;
48859;SDS011;34679;51.436;-2.518;2023-01-31T11:00:19;16.80;;;4.13;;
48859;SDS011;34679;51.436;-2.518;2023-01-31T11:02:47;18.60;;;4.18;;
48859;SDS011;34679;51.436;-2.518;2023-01-31T11:05:20;12.73;;;3.78;;
48859;SDS011;34679;51.436;-2.518;2023-01-31T11:07:48;16.33;;;4.65;;
48859;SDS011;34679;51.436;-2.518;2023-01-31T11:10:32;13.18;;;4.00;;
48859;SDS011;34679;51.436;-2.518;2023-01-31T11:13:16;25.55;;;4.38;;
48859;SDS011;34679;51.436;-2.518;2023-01-31T11:15:43;20.15;;;4.85;;
48859;SDS011;34679;51.436;-2.518;2023-01-31T11:20:52;21.58;;;5.25;;
48859;SDS011;34679;51.436;-2.518;2023-01-31T11:23:22;22.80;;;4.75;;
48859;SDS011;34679;51.436;-2.518;2023-01-31T11:25:51;15.02;;;4.90;;
48859;SDS011;34679;51.436;-2.518;2023-01-31T11:28:34;17.15;;;4.95;;
48859;SDS011;34679;51.436;-2.518;2023-01-31T11:31:03;13.73;;;4.72;;
48859;SDS011;34679;51.436;-2.518;2023-01-31T11:33:37;21.25;;;5.05;;
48859;SDS011;34679;51.436;-2.518;2023-01-31T11:36:09;18.15;;;4.13;;
48859;SDS011;34679;51.436;-2.518;2023-01-31T11:38:37;14.15;;;5.38;;
48859;SDS011;34679;51.436;-2.518;2023-01-31T11:44:00;20.85;;;4.60;;
48859;SDS011;34679;51.436;-2.518;2023-01-31T11:46:30;17.20;;;5.55;;
48859;SDS011;34679;51.436;-2.518;2023-01-31T11:48:57;15.32;;;4.25;;
48859;SDS011;34679;51.436;-2.518;2023-01-31T11:51:27;13.77;;;4.85;;
48859;SDS011;34679;51.436;-2.518;2023-01-31T11:53:55;15.43;;;4.18;;
48859;SDS011;34679;51.436;-2.518;2023-01-31T11:56:23;11.05;;;2.78;;
48859;SDS011;34679;51.436;-2.518;2023-01-31T11:58:52;9.02;;;3.00;;
48859;SDS011;34679;51.436;-2.518;2023-01-31T12:01:21;11.98;;;3.08;;
48859;SDS011;34679;51.436;-2.518;2023-01-31T12:03:54;7.13;;;2.65;;
48859;SDS011;34679;51.436;-2.518;2023-01-31T12:08:55;12.73;;;2.65;;
48859;SDS011;34679;51.436;-2.518;2023-01-31T12:11:30;13.13;;;3.22;;
48859;SDS011;34679;51.436;-2.518;2023-01-31T12:16:39;12.45;;;2.60;;
48859;SDS011;34679;51.436;-2.518;2023-01-31T12:21:48;10.30;;;3.65;;
48859;SDS011;34679;51.436;-2.518;2023-01-31T12:35:21;16.63;;;2.58;;
48859;SDS011;34679;51.436;-2.518;2023-01-31T12:38:10;19.35;;;3.15;;
48859;SDS011;34679;51.436;-2.518;2023-01-31T12:43:29;15.60;;;2.72;;
48859;SDS011;34679;51.436;-2.518;2023-01-31T12:59:44;17.10;;;2.60;;
48859;SDS011;34679;51.436;-2.518;2023-01-31T13:05:08;23.83;;;3.33;;
48859;SDS011;34679;51.436;-2.518;2023-01-31T13:07:49;21.70;;;3.35;;
48859;SDS011;34679;51.436;-2.518;2023-01-31T13:10:39;22.05;;;3.10;;
48859;SDS011;34679;51.436;-2.518;2023-01-31T13:13:13;20.85;;;3.10;;
48859;SDS011;34679;51.436;-2.518;2023-01-31T13:15:51;19.70;;;3.25;;
48859;SDS011;34679;51.436;-2.518;2023-01-31T13:18:40;27.77;;;4.32;;
48859;SDS011;34679;51.436;-2.518;2023-01-31T13:21:11;15.43;;;2.33;;
48859;SDS011;34679;51.436;-2.518;2023-01-31T13:23:45;24.65;;;3.42;;
48859;SDS011;34679;51.436;-2.518;2023-01-31T13:28:47;20.65;;;3.80;;
48859;SDS011;34679;51.436;-2.518;2023-01-31T13:31:22;20.08;;;3.65;;
48859;SDS011;34679;51.436;-2.518;2023-01-31T13:34:04;22.20;;;4.10;;
48859;SDS011;34679;51.436;-2.518;2023-01-31T13:36:42;29.05;;;4.47;;
48859;SDS011;34679;51.436;-2.518;2023-01-31T13:39:19;13.85;;;2.97;;
48859;SDS011;34679;51.436;-2.518;2023-01-31T13:41:48;21.27;;;4.30;;
48859;SDS011;34679;51.436;-2.518;2023-01-31T13:44:14;21.92;;;3.22;;
48859;SDS011;34679;51.436;-2.518;2023-01-31T13:46:46;15.55;;;2.55;;
48859;SDS011;34679;51.436;-2.518;2023-01-31T13:52:17;12.73;;;2.45;;
48859;SDS011;34679;51.436;-2.518;2023-01-31T13:54:59;17.05;;;3.08;;
48859;SDS011;34679;51.436;-2.518;2023-01-31T13:57:34;23.73;;;3.25;;
48859;SDS011;34679;51.436;-2.518;2023-01-31T14:03:10;13.52;;;2.92;;
48859;SDS011;34679;51.436;-2.518;2023-01-31T14:13:42;18.75;;;2.88;;
48859;SDS011;34679;51.436;-2.518;2023-01-31T14:18:59;21.98;;;3.03;;
48859;SDS011;34679;51.436;-2.518;2023-01-31T14:23:54;20.23;;;2.97;;
48859;SDS011;34679;51.436;-2.518;2023-01-31T14:26:31;13.35;;;2.78;;
48859;SDS011;34679;51.436;-2.518;2023-01-31T14:28:57;15.75;;;3.05;;
48859;SDS011;34679;51.436;-2.518;2023-01-31T14:31:23;14.30;;;2.92;;
48859;SDS011;34679;51.436;-2.518;2023-01-31T14:33:50;18.42;;;3.40;;
48859;SDS011;34679;51.436;-2.518;2023-01-31T14:42:13;22.50;;;3.67;;
48859;SDS011;34679;51.436;-2.518;2023-01-31T14:44:44;20.13;;;3.15;;
48859;SDS011;34679;51.436;-2.518;2023-01-31T14:50:42;14.15;;;2.70;;
48859;SDS011;34679;51.436;-2.518;2023-01-31T14:56:52;15.25;;;3.28;;
48859;SDS011;34679;51.436;-2.518;2023-01-31T14:59:32;15.38;;;2.65;;
48859;SDS011;34679;51.436;-2.518;2023-01-31T15:05:03;18.17;;;3.35;;
48859;SDS011;34679;51.436;-2.518;2023-01-31T15:07:33;20.52;;;3.20;;
48859;SDS011;34679;51.436;-2.518;2023-01-31T15:09:59;17.15;;;3.15;;
48859;SDS011;34679;51.436;-2.518;2023-01-31T15:15:42;25.88;;;3.58;;
48859;SDS011;34679;51.436;-2.518;2023-01-31T15:18:17;14.57;;;2.58;;
48859;SDS011;34679;51.436;-2.518;2023-01-31T15:20:49;15.93;;;2.80;;
48859;SDS011;34679;51.436;-2.518;2023-01-31T15:23:20;14.10;;;2.67;;
48859;SDS011;34679;51.436;-2.518;2023-01-31T15:25:49;16.98;;;3.47;;
48859;SDS011;34679;51.436;-2.518;2023-01-31T15:28:20;22.55;;;3.08;;
48859;SDS011;34679;51.436;-2.518;2023-01-31T15:30:49;18.50;;;3.70;;
48859;SDS011;34679;51.436;-2.518;2023-01-31T15:33:27;22.73;;;3.25;;
48859;SDS011;34679;51.436;-2.518;2023-01-31T15:41:51;16.05;;;3.17;;
48859;SDS011;34679;51.436;-2.518;2023-01-31T15:44:18;20.00;;;3.50;;
48859;SDS011;34679;51.436;-2.518;2023-01-31T15:46:46;18.70;;;3.03;;
48859;SDS011;34679;51.436;-2.518;2023-01-31T15:49:20;30.60;;;3.55;;
48859;SDS011;34679;51.436;-2.518;2023-01-31T15:54:26;30.73;;;4.32;;
48859;SDS011;34679;51.436;-2.518;2023-01-31T15:56:51;30.45;;;4.15;;
48859;SDS011;34679;51.436;-2.518;2023-01-31T15:59:17;16.98;;;3.35;;
48859;SDS011;34679;51.436;-2.518;2023-01-31T16:01:46;17.15;;;3.90;;
48859;SDS011;34679;51.436;-2.518;2023-01-31T16:04:13;20.50;;;3.47;;
48859;SDS011;34679;51.436;-2.518;2023-01-31T16:06:39;20.17;;;3.78;;
48859;SDS011;34679;51.436;-2.518;2023-01-31T16:09:05;21.45;;;3.85;;
48859;SDS011;34679;51.436;-2.518;2023-01-31T16:11:45;27.90;;;4.30;;
48859;SDS011;34679;51.436;-2.518;2023-01-31T16:14:11;24.23;;;2.75;;
48859;SDS011;34679;51.436;-2.518;2023-01-31T16:16:37;16.33;;;3.47;;
48859;SDS011;34679;51.436;-2.518;2023-01-31T16:19:03;24.52;;;3.42;;
48859;SDS011;34679;51.436;-2.518;2023-01-31T16:21:42;23.33;;;3.35;;
48859;SDS011;34679;51.436;-2.518;2023-01-31T16:24:19;25.27;;;4.35;;
48859;SDS011;34679;51.436;-2.518;2023-01-31T16:26:50;26.38;;;3.47;;
48859;SDS011;34679;51.436;-2.518;2023-01-31T16:29:19;24.67;;;3.60;;
48859;SDS011;34679;51.436;-2.518;2023-01-31T16:31:48;27.17;;;4.05;;
48859;SDS011;34679;51.436;-2.518;2023-01-31T16:34:26;21.63;;;3.33;;
48859;SDS011;34679;51.436;-2.518;2023-01-31T16:37:05;25.52;;;3.63;;
48859;SDS011;34679;51.436;-2.518;2023-01-31T16:39:38;22.38;;;3.20;;
48859;SDS011;34679;51.436;-2.518;2023-01-31T16:44:44;30.17;;;3.40;;
48859;SDS011;34679;51.436;-2.518;2023-01-31T16:50:41;20.52;;;4.15;;
48859;SDS011;34679;51.436;-2.518;2023-01-31T16:52:48;20.77;;;3.28;;
48859;SDS011;34679;51.436;-2.518;2023-01-31T16:57:41;24.42;;;4.25;;
48859;SDS011;34679;51.436;-2.518;2023-01-31T17:02:49;21.98;;;3.30;;
48859;SDS011;34679;51.436;-2.518;2023-01-31T17:05:20;20.52;;;3.13;;
48859;SDS011;34679;51.436;-2.518;2023-01-31T17:08:17;23.75;;;4.70;;
48859;SDS011;34679;51.436;-2.518;2023-01-31T17:10:45;14.40;;;3.25;;
48859;SDS011;34679;51.436;-2.518;2023-01-31T17:13:19;20.08;;;3.67;;
48859;SDS011;34679;51.436;-2.518;2023-01-31T17:15:47;28.20;;;3.00;;
48859;SDS011;34679;51.436;-2.518;2023-01-31T17:18:13;21.00;;;3.63;;
48859;SDS011;34679;51.436;-2.518;2023-01-31T17:20:44;28.42;;;4.97;;
48859;SDS011;34679;51.436;-2.518;2023-01-31T17:23:12;28.23;;;5.70;;
48859;SDS011;34679;51.436;-2.518;2023-01-31T17:25:39;26.58;;;5.43;;
48859;SDS011;34679;51.436;-2.518;2023-01-31T17:28:06;23.13;;;3.92;;
48859;SDS011;34679;51.436;-2.518;2023-01-31T17:30:32;27.75;;;4.25;;
48859;SDS011;34679;51.436;-2.518;2023-01-31T17:32:58;25.67;;;3.50;;
48859;SDS011;34679;51.436;-2.518;2023-01-31T17:35:29;25.27;;;3.88;;
48859;SDS011;34679;51.436;-2.518;2023-01-31T17:38:00;23.50;;;4.13;;
48859;SDS011;34679;51.436;-2.518;2023-01-31T17:40:26;21.48;;;3.42;;
48859;SDS011;34679;51.436;-2.518;2023-01-31T17:43:01;21.00;;;3.65;;
48859;SDS011;34679;51.436;-2.518;2023-01-31T17:45:28;26.08;;;4.18;;
48859;SDS011;34679;51.436;-2.518;2023-01-31T17:47:56;33.78;;;4.65;;